Archival Weather

Al Kharj

Al Kharj, Saudi Arabia (OEKJ)

Report from: Thursday, September 21, 2023 11:00 PM UTC
Current time: Friday, February 23, 2024 8:18 PM UTC

Current weather – Weather history – Daily summaries
Weather forecast

Temperature28.0°C (82.4°F)
Heat index26.6°C (79.9°F)
Dew point-4.0°C (24.8°F)
Winds 2 kts (1 m/s, 2.3 mph) Vrb
Winds variableWinds variable
Clouds Sky clear
Altimeter29.88 in.Hg (1012 mB)
Relative humidity12 %
Density altitude1,616 ft. (492 m)
Remarks Ceiling and visibility OK
Flight conditions Visual Meteorological Conditions
Raw dataOEKJ 212300Z VRB02KT CAVOK 28/M04 Q1012
An error has occurred. This application may no longer respond until reloaded. Reload 🗙